sensor_id;sensor_type;location;lat;lon;timestamp;temperature;humidity
3418;DHT22;68007;51.312;12.372;2023-08-31T00:00:23;17.20;93.70
3418;DHT22;68007;51.312;12.372;2023-08-31T00:02:51;17.30;93.90
3418;DHT22;68007;51.312;12.372;2023-08-31T00:05:19;17.30;93.80
3418;DHT22;68007;51.312;12.372;2023-08-31T00:07:48;17.40;93.60
3418;DHT22;68007;51.312;12.372;2023-08-31T00:10:15;17.50;93.70
3418;DHT22;68007;51.312;12.372;2023-08-31T00:12:43;17.60;93.70
3418;DHT22;68007;51.312;12.372;2023-08-31T00:15:11;17.60;93.00
3418;DHT22;68007;51.312;12.372;2023-08-31T00:17:39;17.60;93.30
3418;DHT22;68007;51.312;12.372;2023-08-31T00:20:08;17.60;93.30
3418;DHT22;68007;51.312;12.372;2023-08-31T00:22:38;17.70;93.40
3418;DHT22;68007;51.312;12.372;2023-08-31T00:25:07;17.70;93.30
3418;DHT22;68007;51.312;12.372;2023-08-31T00:27:35;17.70;93.10
3418;DHT22;68007;51.312;12.372;2023-08-31T00:30:04;17.80;93.20
3418;DHT22;68007;51.312;12.372;2023-08-31T00:32:33;17.80;93.20
3418;DHT22;68007;51.312;12.372;2023-08-31T00:35:01;17.80;93.00
3418;DHT22;68007;51.312;12.372;2023-08-31T00:37:29;17.70;93.00
3418;DHT22;68007;51.312;12.372;2023-08-31T00:39:57;17.80;93.10
3418;DHT22;68007;51.312;12.372;2023-08-31T00:42:26;17.70;93.00
3418;DHT22;68007;51.312;12.372;2023-08-31T00:44:55;17.70;92.90
3418;DHT22;68007;51.312;12.372;2023-08-31T00:47:23;17.70;93.20
3418;DHT22;68007;51.312;12.372;2023-08-31T00:49:51;17.60;93.10
3418;DHT22;68007;51.312;12.372;2023-08-31T00:52:19;17.60;93.10
3418;DHT22;68007;51.312;12.372;2023-08-31T00:54:47;17.70;93.10
3418;DHT22;68007;51.312;12.372;2023-08-31T00:57:16;17.70;93.00
3418;DHT22;68007;51.312;12.372;2023-08-31T00:59:45;17.60;92.90
3418;DHT22;68007;51.312;12.372;2023-08-31T01:02:18;17.50;93.00
3418;DHT22;68007;51.312;12.372;2023-08-31T01:04:52;17.50;93.20
3418;DHT22;68007;51.312;12.372;2023-08-31T01:07:31;17.40;93.30
3418;DHT22;68007;51.312;12.372;2023-08-31T01:10:07;17.50;93.30
3418;DHT22;68007;51.312;12.372;2023-08-31T01:12:49;17.50;93.30
3418;DHT22;68007;51.312;12.372;2023-08-31T01:15:19;17.40;93.20
3418;DHT22;68007;51.312;12.372;2023-08-31T01:17:48;17.30;93.10
3418;DHT22;68007;51.312;12.372;2023-08-31T01:20:21;17.20;93.30
3418;DHT22;68007;51.312;12.372;2023-08-31T01:22:57;17.20;93.50
3418;DHT22;68007;51.312;12.372;2023-08-31T01:25:29;17.20;93.40
3418;DHT22;68007;51.312;12.372;2023-08-31T01:27:59;17.20;93.50
3418;DHT22;68007;51.312;12.372;2023-08-31T01:30:30;17.10;93.60
3418;DHT22;68007;51.312;12.372;2023-08-31T01:32:58;17.10;93.60
3418;DHT22;68007;51.312;12.372;2023-08-31T01:35:26;17.10;93.70
3418;DHT22;68007;51.312;12.372;2023-08-31T01:37:56;17.10;93.60
3418;DHT22;68007;51.312;12.372;2023-08-31T01:40:27;17.20;93.60
3418;DHT22;68007;51.312;12.372;2023-08-31T01:43:01;17.20;93.30
3418;DHT22;68007;51.312;12.372;2023-08-31T01:45:30;17.10;93.30
3418;DHT22;68007;51.312;12.372;2023-08-31T01:47:59;17.10;93.40
3418;DHT22;68007;51.312;12.372;2023-08-31T01:50:27;17.10;93.50
3418;DHT22;68007;51.312;12.372;2023-08-31T01:52:54;17.10;93.40
3418;DHT22;68007;51.312;12.372;2023-08-31T01:55:22;17.10;93.50
3418;DHT22;68007;51.312;12.372;2023-08-31T01:57:50;17.10;93.50
3418;DHT22;68007;51.312;12.372;2023-08-31T02:00:19;17.10;93.60
3418;DHT22;68007;51.312;12.372;2023-08-31T02:02:47;17.10;93.50
3418;DHT22;68007;51.312;12.372;2023-08-31T02:05:14;17.10;93.30
3418;DHT22;68007;51.312;12.372;2023-08-31T02:07:42;17.20;93.30
3418;DHT22;68007;51.312;12.372;2023-08-31T02:10:09;17.10;93.30
3418;DHT22;68007;51.312;12.372;2023-08-31T02:12:37;17.10;93.20
3418;DHT22;68007;51.312;12.372;2023-08-31T02:15:05;17.10;93.30
3418;DHT22;68007;51.312;12.372;2023-08-31T02:17:35;17.00;93.20
3418;DHT22;68007;51.312;12.372;2023-08-31T02:20:03;17.00;93.20
3418;DHT22;68007;51.312;12.372;2023-08-31T02:22:34;17.00;93.30
3418;DHT22;68007;51.312;12.372;2023-08-31T02:25:01;17.00;93.20
3418;DHT22;68007;51.312;12.372;2023-08-31T02:27:29;17.00;93.40
3418;DHT22;68007;51.312;12.372;2023-08-31T02:29:57;17.00;93.30
3418;DHT22;68007;51.312;12.372;2023-08-31T02:32:24;16.90;93.20
3418;DHT22;68007;51.312;12.372;2023-08-31T02:34:53;16.90;93.20
3418;DHT22;68007;51.312;12.372;2023-08-31T02:37:20;16.90;93.10
3418;DHT22;68007;51.312;12.372;2023-08-31T02:39:48;16.90;93.10
3418;DHT22;68007;51.312;12.372;2023-08-31T02:42:15;16.90;93.20
3418;DHT22;68007;51.312;12.372;2023-08-31T02:44:43;16.80;92.90
3418;DHT22;68007;51.312;12.372;2023-08-31T02:47:10;16.70;93.30
3418;DHT22;68007;51.312;12.372;2023-08-31T02:49:38;16.70;93.50
3418;DHT22;68007;51.312;12.372;2023-08-31T02:52:07;16.70;93.40
3418;DHT22;68007;51.312;12.372;2023-08-31T02:54:34;16.70;93.30
3418;DHT22;68007;51.312;12.372;2023-08-31T02:57:02;16.70;93.20
3418;DHT22;68007;51.312;12.372;2023-08-31T02:59:29;16.60;93.20
3418;DHT22;68007;51.312;12.372;2023-08-31T03:01:57;16.40;93.30
3418;DHT22;68007;51.312;12.372;2023-08-31T03:04:24;16.40;93.80
3418;DHT22;68007;51.312;12.372;2023-08-31T03:06:53;16.30;94.00
3418;DHT22;68007;51.312;12.372;2023-08-31T03:09:22;16.40;94.00
3418;DHT22;68007;51.312;12.372;2023-08-31T03:11:49;16.40;93.90
3418;DHT22;68007;51.312;12.372;2023-08-31T03:14:16;16.30;93.90
3418;DHT22;68007;51.312;12.372;2023-08-31T03:16:44;16.20;94.10
3418;DHT22;68007;51.312;12.372;2023-08-31T03:19:11;16.20;94.20
3418;DHT22;68007;51.312;12.372;2023-08-31T03:21:39;16.20;94.30
3418;DHT22;68007;51.312;12.372;2023-08-31T03:24:07;16.30;94.30
3418;DHT22;68007;51.312;12.372;2023-08-31T03:26:36;16.30;94.30
3418;DHT22;68007;51.312;12.372;2023-08-31T03:29:03;16.30;94.20
3418;DHT22;68007;51.312;12.372;2023-08-31T03:31:31;16.30;94.20
3418;DHT22;68007;51.312;12.372;2023-08-31T03:33:58;16.30;94.20
3418;DHT22;68007;51.312;12.372;2023-08-31T03:36:26;16.40;94.20
3418;DHT22;68007;51.312;12.372;2023-08-31T03:38:53;16.40;94.10
3418;DHT22;68007;51.312;12.372;2023-08-31T03:41:21;16.40;94.10
3418;DHT22;68007;51.312;12.372;2023-08-31T03:43:50;16.40;94.20
3418;DHT22;68007;51.312;12.372;2023-08-31T03:46:17;16.40;94.30
3418;DHT22;68007;51.312;12.372;2023-08-31T03:48:45;16.40;94.30
3418;DHT22;68007;51.312;12.372;2023-08-31T03:51:12;16.30;94.30
3418;DHT22;68007;51.312;12.372;2023-08-31T03:53:40;16.30;94.50
3418;DHT22;68007;51.312;12.372;2023-08-31T03:56:08;16.20;94.60
3418;DHT22;68007;51.312;12.372;2023-08-31T03:58:35;16.20;94.70
3418;DHT22;68007;51.312;12.372;2023-08-31T04:01:04;16.10;94.90
3418;DHT22;68007;51.312;12.372;2023-08-31T04:03:32;16.10;94.90
3418;DHT22;68007;51.312;12.372;2023-08-31T04:06:00;16.10;94.90
3418;DHT22;68007;51.312;12.372;2023-08-31T04:08:27;16.10;94.90
3418;DHT22;68007;51.312;12.372;2023-08-31T04:10:54;16.10;95.00
3418;DHT22;68007;51.312;12.372;2023-08-31T04:13:22;16.00;95.10
3418;DHT22;68007;51.312;12.372;2023-08-31T04:15:52;16.10;95.10
3418;DHT22;68007;51.312;12.372;2023-08-31T04:18:21;16.10;95.20
3418;DHT22;68007;51.312;12.372;2023-08-31T04:20:50;16.10;95.10
3418;DHT22;68007;51.312;12.372;2023-08-31T04:23:18;16.10;95.10
3418;DHT22;68007;51.312;12.372;2023-08-31T04:25:46;16.20;95.00
3418;DHT22;68007;51.312;12.372;2023-08-31T04:28:13;16.20;94.90
3418;DHT22;68007;51.312;12.372;2023-08-31T04:30:41;16.30;94.80
3418;DHT22;68007;51.312;12.372;2023-08-31T04:33:09;16.30;94.80
3418;DHT22;68007;51.312;12.372;2023-08-31T04:35:38;16.20;94.90
3418;DHT22;68007;51.312;12.372;2023-08-31T04:38:05;16.00;95.20
3418;DHT22;68007;51.312;12.372;2023-08-31T04:40:33;15.90;95.60
3418;DHT22;68007;51.312;12.372;2023-08-31T04:43:00;15.80;95.70
3418;DHT22;68007;51.312;12.372;2023-08-31T04:45:28;15.90;95.70
3418;DHT22;68007;51.312;12.372;2023-08-31T04:47:56;15.80;95.80
3418;DHT22;68007;51.312;12.372;2023-08-31T04:50:25;15.70;95.90
3418;DHT22;68007;51.312;12.372;2023-08-31T04:52:54;15.80;95.90
3418;DHT22;68007;51.312;12.372;2023-08-31T04:55:22;15.80;95.80
3418;DHT22;68007;51.312;12.372;2023-08-31T04:57:49;15.90;95.90
3418;DHT22;68007;51.312;12.372;2023-08-31T05:00:17;15.80;95.80
3418;DHT22;68007;51.312;12.372;2023-08-31T05:02:45;15.80;96.00
3418;DHT22;68007;51.312;12.372;2023-08-31T05:05:12;15.80;96.20
3418;DHT22;68007;51.312;12.372;2023-08-31T05:07:40;15.70;96.40
3418;DHT22;68007;51.312;12.372;2023-08-31T05:10:10;15.70;96.20
3418;DHT22;68007;51.312;12.372;2023-08-31T05:12:37;15.70;96.20
3418;DHT22;68007;51.312;12.372;2023-08-31T05:15:06;15.60;96.40
3418;DHT22;68007;51.312;12.372;2023-08-31T05:17:34;15.50;96.60
3418;DHT22;68007;51.312;12.372;2023-08-31T05:20:01;15.40;96.80
3418;DHT22;68007;51.312;12.372;2023-08-31T05:22:31;15.40;96.80
3418;DHT22;68007;51.312;12.372;2023-08-31T05:24:58;15.40;96.80
3418;DHT22;68007;51.312;12.372;2023-08-31T05:27:28;15.40;96.80
3418;DHT22;68007;51.312;12.372;2023-08-31T05:29:55;15.40;96.90
3418;DHT22;68007;51.312;12.372;2023-08-31T05:32:23;15.40;96.90
3418;DHT22;68007;51.312;12.372;2023-08-31T05:34:50;15.50;96.90
3418;DHT22;68007;51.312;12.372;2023-08-31T05:37:18;15.40;97.00
3418;DHT22;68007;51.312;12.372;2023-08-31T05:39:47;15.20;97.30
3418;DHT22;68007;51.312;12.372;2023-08-31T05:42:15;15.20;97.50
3418;DHT22;68007;51.312;12.372;2023-08-31T05:44:44;15.10;97.60
3418;DHT22;68007;51.312;12.372;2023-08-31T05:47:11;15.20;97.50
3418;DHT22;68007;51.312;12.372;2023-08-31T05:49:39;15.20;97.40
3418;DHT22;68007;51.312;12.372;2023-08-31T05:52:06;15.30;97.20
3418;DHT22;68007;51.312;12.372;2023-08-31T05:54:34;15.40;97.10
3418;DHT22;68007;51.312;12.372;2023-08-31T05:57:03;15.40;97.20
3418;DHT22;68007;51.312;12.372;2023-08-31T05:59:31;15.30;97.30
3418;DHT22;68007;51.312;12.372;2023-08-31T06:02:00;15.30;97.30
3418;DHT22;68007;51.312;12.372;2023-08-31T06:04:30;15.30;97.30
3418;DHT22;68007;51.312;12.372;2023-08-31T06:06:58;15.30;97.40
3418;DHT22;68007;51.312;12.372;2023-08-31T06:09:25;15.20;97.40
3418;DHT22;68007;51.312;12.372;2023-08-31T06:11:53;15.20;97.50
3418;DHT22;68007;51.312;12.372;2023-08-31T06:14:21;15.20;97.50
3418;DHT22;68007;51.312;12.372;2023-08-31T06:16:48;15.20;97.60
3418;DHT22;68007;51.312;12.372;2023-08-31T06:19:17;15.20;97.80
3418;DHT22;68007;51.312;12.372;2023-08-31T06:21:44;15.10;97.60
3418;DHT22;68007;51.312;12.372;2023-08-31T06:24:12;15.10;97.70
3418;DHT22;68007;51.312;12.372;2023-08-31T06:26:41;15.10;97.70
3418;DHT22;68007;51.312;12.372;2023-08-31T06:29:08;15.00;97.80
3418;DHT22;68007;51.312;12.372;2023-08-31T06:31:37;15.10;97.70
3418;DHT22;68007;51.312;12.372;2023-08-31T06:34:04;15.10;97.30
3418;DHT22;68007;51.312;12.372;2023-08-31T06:36:34;15.00;97.50
3418;DHT22;68007;51.312;12.372;2023-08-31T06:39:01;15.00;97.70
3418;DHT22;68007;51.312;12.372;2023-08-31T06:41:30;15.00;97.80
3418;DHT22;68007;51.312;12.372;2023-08-31T06:43:57;15.00;97.60
3418;DHT22;68007;51.312;12.372;2023-08-31T06:46:25;15.00;97.70
3418;DHT22;68007;51.312;12.372;2023-08-31T06:48:52;15.00;97.60
3418;DHT22;68007;51.312;12.372;2023-08-31T06:51:20;14.90;98.00
3418;DHT22;68007;51.312;12.372;2023-08-31T06:53:49;14.80;98.20
3418;DHT22;68007;51.312;12.372;2023-08-31T06:56:16;14.90;98.10
3418;DHT22;68007;51.312;12.372;2023-08-31T06:58:44;14.80;97.70
3418;DHT22;68007;51.312;12.372;2023-08-31T07:01:13;14.80;97.70
3418;DHT22;68007;51.312;12.372;2023-08-31T07:03:40;14.80;97.90
3418;DHT22;68007;51.312;12.372;2023-08-31T07:06:08;14.80;97.90
3418;DHT22;68007;51.312;12.372;2023-08-31T07:08:36;14.80;97.80
3418;DHT22;68007;51.312;12.372;2023-08-31T07:11:08;14.80;97.80
3418;DHT22;68007;51.312;12.372;2023-08-31T07:13:35;14.90;97.70
3418;DHT22;68007;51.312;12.372;2023-08-31T07:16:03;14.80;97.70
3418;DHT22;68007;51.312;12.372;2023-08-31T07:18:31;14.90;97.80
3418;DHT22;68007;51.312;12.372;2023-08-31T07:20:58;15.00;97.70
3418;DHT22;68007;51.312;12.372;2023-08-31T07:23:26;15.00;97.60
3418;DHT22;68007;51.312;12.372;2023-08-31T07:25:56;15.10;97.40
3418;DHT22;68007;51.312;12.372;2023-08-31T07:28:27;15.20;97.50
3418;DHT22;68007;51.312;12.372;2023-08-31T07:31:01;15.20;97.30
3418;DHT22;68007;51.312;12.372;2023-08-31T07:33:30;15.20;97.20
3418;DHT22;68007;51.312;12.372;2023-08-31T07:35:58;15.10;96.40
3418;DHT22;68007;51.312;12.372;2023-08-31T07:38:26;15.10;96.50
3418;DHT22;68007;51.312;12.372;2023-08-31T07:40:54;15.10;96.50
3418;DHT22;68007;51.312;12.372;2023-08-31T07:43:22;15.10;96.60
3418;DHT22;68007;51.312;12.372;2023-08-31T07:45:51;15.00;96.50
3418;DHT22;68007;51.312;12.372;2023-08-31T07:48:19;15.10;96.60
3418;DHT22;68007;51.312;12.372;2023-08-31T07:50:46;15.10;96.50
3418;DHT22;68007;51.312;12.372;2023-08-31T07:53:15;15.10;96.60
3418;DHT22;68007;51.312;12.372;2023-08-31T07:55:51;15.20;96.20
3418;DHT22;68007;51.312;12.372;2023-08-31T07:58:20;15.30;96.10
3418;DHT22;68007;51.312;12.372;2023-08-31T08:00:48;15.30;96.00
3418;DHT22;68007;51.312;12.372;2023-08-31T08:03:17;15.30;95.80
3418;DHT22;68007;51.312;12.372;2023-08-31T08:05:45;15.40;95.80
3418;DHT22;68007;51.312;12.372;2023-08-31T08:08:12;15.50;95.70
3418;DHT22;68007;51.312;12.372;2023-08-31T08:10:40;15.60;95.80
3418;DHT22;68007;51.312;12.372;2023-08-31T08:13:09;15.70;95.70
3418;DHT22;68007;51.312;12.372;2023-08-31T08:15:37;15.80;95.00
3418;DHT22;68007;51.312;12.372;2023-08-31T08:18:05;15.70;94.90
3418;DHT22;68007;51.312;12.372;2023-08-31T08:20:34;15.80;94.90
3418;DHT22;68007;51.312;12.372;2023-08-31T08:23:01;15.90;94.90
3418;DHT22;68007;51.312;12.372;2023-08-31T08:25:29;15.90;94.60
3418;DHT22;68007;51.312;12.372;2023-08-31T08:27:56;16.00;94.10
3418;DHT22;68007;51.312;12.372;2023-08-31T08:30:24;15.90;94.20
3418;DHT22;68007;51.312;12.372;2023-08-31T08:32:51;15.90;94.20
3418;DHT22;68007;51.312;12.372;2023-08-31T08:35:19;15.80;94.20
3418;DHT22;68007;51.312;12.372;2023-08-31T08:37:48;15.80;94.40
3418;DHT22;68007;51.312;12.372;2023-08-31T08:40:15;15.80;94.60
3418;DHT22;68007;51.312;12.372;2023-08-31T08:42:43;15.70;94.70
3418;DHT22;68007;51.312;12.372;2023-08-31T08:45:14;15.70;95.00
3418;DHT22;68007;51.312;12.372;2023-08-31T08:47:42;15.80;94.60
3418;DHT22;68007;51.312;12.372;2023-08-31T08:50:12;15.80;94.70
3418;DHT22;68007;51.312;12.372;2023-08-31T08:52:40;15.90;94.50
3418;DHT22;68007;51.312;12.372;2023-08-31T08:55:09;15.90;94.40
3418;DHT22;68007;51.312;12.372;2023-08-31T08:57:37;15.90;94.50
3418;DHT22;68007;51.312;12.372;2023-08-31T09:00:06;16.00;94.50
3418;DHT22;68007;51.312;12.372;2023-08-31T09:02:34;16.00;94.30
3418;DHT22;68007;51.312;12.372;2023-08-31T09:05:02;16.00;94.00
3418;DHT22;68007;51.312;12.372;2023-08-31T09:07:30;16.10;94.10
3418;DHT22;68007;51.312;12.372;2023-08-31T09:09:59;16.10;93.60
3418;DHT22;68007;51.312;12.372;2023-08-31T09:12:28;16.00;93.80
3418;DHT22;68007;51.312;12.372;2023-08-31T09:14:59;15.90;93.20
3418;DHT22;68007;51.312;12.372;2023-08-31T09:17:37;15.90;93.50
3418;DHT22;68007;51.312;12.372;2023-08-31T09:20:06;16.00;93.60
3418;DHT22;68007;51.312;12.372;2023-08-31T09:22:35;16.00;93.60
3418;DHT22;68007;51.312;12.372;2023-08-31T09:25:03;16.00;94.20
3418;DHT22;68007;51.312;12.372;2023-08-31T09:27:36;15.80;95.10
3418;DHT22;68007;51.312;12.372;2023-08-31T09:30:06;15.60;95.40
3418;DHT22;68007;51.312;12.372;2023-08-31T09:32:34;15.50;95.70
3418;DHT22;68007;51.312;12.372;2023-08-31T09:35:03;15.40;95.50
3418;DHT22;68007;51.312;12.372;2023-08-31T09:37:32;15.50;95.70
3418;DHT22;68007;51.312;12.372;2023-08-31T09:40:02;15.50;95.20
3418;DHT22;68007;51.312;12.372;2023-08-31T09:42:37;15.50;95.30
3418;DHT22;68007;51.312;12.372;2023-08-31T09:45:06;15.60;95.30
3418;DHT22;68007;51.312;12.372;2023-08-31T09:47:34;15.70;95.30
3418;DHT22;68007;51.312;12.372;2023-08-31T09:50:03;15.70;94.30
3418;DHT22;68007;51.312;12.372;2023-08-31T09:52:31;15.80;93.90
3418;DHT22;68007;51.312;12.372;2023-08-31T09:55:01;15.80;94.20
3418;DHT22;68007;51.312;12.372;2023-08-31T09:57:30;15.80;94.00
3418;DHT22;68007;51.312;12.372;2023-08-31T10:00:01;15.90;94.20
3418;DHT22;68007;51.312;12.372;2023-08-31T10:02:29;16.00;93.60
3418;DHT22;68007;51.312;12.372;2023-08-31T10:04:59;16.00;93.50
3418;DHT22;68007;51.312;12.372;2023-08-31T10:07:27;16.10;93.60
3418;DHT22;68007;51.312;12.372;2023-08-31T10:09:57;16.20;93.60
3418;DHT22;68007;51.312;12.372;2023-08-31T10:12:25;16.30;93.60
3418;DHT22;68007;51.312;12.372;2023-08-31T10:14:54;16.40;93.30
3418;DHT22;68007;51.312;12.372;2023-08-31T10:17:25;16.50;93.50
3418;DHT22;68007;51.312;12.372;2023-08-31T10:19:54;16.50;92.90
3418;DHT22;68007;51.312;12.372;2023-08-31T10:22:22;16.60;93.20
3418;DHT22;68007;51.312;12.372;2023-08-31T10:25:00;16.50;93.00
3418;DHT22;68007;51.312;12.372;2023-08-31T10:27:36;16.50;93.40
3418;DHT22;68007;51.312;12.372;2023-08-31T10:30:25;16.60;92.70
3418;DHT22;68007;51.312;12.372;2023-08-31T10:33:19;16.70;92.50
3418;DHT22;68007;51.312;12.372;2023-08-31T10:35:52;16.80;92.30
3418;DHT22;68007;51.312;12.372;2023-08-31T10:38:27;17.00;92.20
3418;DHT22;68007;51.312;12.372;2023-08-31T10:41:19;17.00;92.10
3418;DHT22;68007;51.312;12.372;2023-08-31T10:43:48;17.10;91.70
3418;DHT22;68007;51.312;12.372;2023-08-31T10:46:18;17.10;91.60
3418;DHT22;68007;51.312;12.372;2023-08-31T10:48:54;17.20;91.80
3418;DHT22;68007;51.312;12.372;2023-08-31T10:51:23;17.30;91.70
3418;DHT22;68007;51.312;12.372;2023-08-31T10:53:51;17.30;91.30
3418;DHT22;68007;51.312;12.372;2023-08-31T10:56:19;17.30;90.80
3418;DHT22;68007;51.312;12.372;2023-08-31T10:58:58;17.30;90.70
3418;DHT22;68007;51.312;12.372;2023-08-31T11:01:56;17.40;90.90
3418;DHT22;68007;51.312;12.372;2023-08-31T11:04:27;17.50;90.70
3418;DHT22;68007;51.312;12.372;2023-08-31T11:07:19;17.60;89.60
3418;DHT22;68007;51.312;12.372;2023-08-31T11:09:46;17.70;87.30
3418;DHT22;68007;51.312;12.372;2023-08-31T11:12:14;17.70;87.60
3418;DHT22;68007;51.312;12.372;2023-08-31T11:14:42;17.80;86.90
3418;DHT22;68007;51.312;12.372;2023-08-31T11:17:10;17.90;86.80
3418;DHT22;68007;51.312;12.372;2023-08-31T11:19:39;18.00;85.30
3418;DHT22;68007;51.312;12.372;2023-08-31T11:22:08;18.00;84.80
3418;DHT22;68007;51.312;12.372;2023-08-31T11:24:38;18.00;83.40
3418;DHT22;68007;51.312;12.372;2023-08-31T11:27:08;18.00;83.10
3418;DHT22;68007;51.312;12.372;2023-08-31T11:29:43;18.00;83.20
3418;DHT22;68007;51.312;12.372;2023-08-31T11:32:11;18.10;83.40
3418;DHT22;68007;51.312;12.372;2023-08-31T11:34:41;18.20;83.10
3418;DHT22;68007;51.312;12.372;2023-08-31T11:37:10;18.30;83.00
3418;DHT22;68007;51.312;12.372;2023-08-31T11:39:38;18.40;82.20
3418;DHT22;68007;51.312;12.372;2023-08-31T11:42:06;18.40;81.70
3418;DHT22;68007;51.312;12.372;2023-08-31T11:44:34;18.50;80.90
3418;DHT22;68007;51.312;12.372;2023-08-31T11:47:02;18.60;80.60
3418;DHT22;68007;51.312;12.372;2023-08-31T11:49:30;18.70;79.90
3418;DHT22;68007;51.312;12.372;2023-08-31T11:52:00;18.90;80.40
3418;DHT22;68007;51.312;12.372;2023-08-31T11:54:27;19.00;78.80
3418;DHT22;68007;51.312;12.372;2023-08-31T11:56:55;19.20;80.30
3418;DHT22;68007;51.312;12.372;2023-08-31T11:59:23;19.40;76.80
3418;DHT22;68007;51.312;12.372;2023-08-31T12:01:51;19.50;77.80
3418;DHT22;68007;51.312;12.372;2023-08-31T12:04:21;19.60;75.90
3418;DHT22;68007;51.312;12.372;2023-08-31T12:06:51;19.70;76.90
3418;DHT22;68007;51.312;12.372;2023-08-31T12:09:21;19.90;75.40
3418;DHT22;68007;51.312;12.372;2023-08-31T12:11:52;20.10;75.60
3418;DHT22;68007;51.312;12.372;2023-08-31T12:14:21;20.40;73.60
3418;DHT22;68007;51.312;12.372;2023-08-31T12:16:49;20.50;71.40
3418;DHT22;68007;51.312;12.372;2023-08-31T12:19:17;20.70;71.10
3418;DHT22;68007;51.312;12.372;2023-08-31T12:21:46;20.90;69.00
3418;DHT22;68007;51.312;12.372;2023-08-31T12:24:14;21.00;69.90
3418;DHT22;68007;51.312;12.372;2023-08-31T12:26:44;21.10;68.60
3418;DHT22;68007;51.312;12.372;2023-08-31T12:29:12;21.20;68.40
3418;DHT22;68007;51.312;12.372;2023-08-31T12:31:39;21.30;68.20
3418;DHT22;68007;51.312;12.372;2023-08-31T12:34:07;21.40;65.00
3418;DHT22;68007;51.312;12.372;2023-08-31T12:36:34;21.50;66.40
3418;DHT22;68007;51.312;12.372;2023-08-31T12:39:03;21.50;66.40
3418;DHT22;68007;51.312;12.372;2023-08-31T12:41:33;21.80;64.30
3418;DHT22;68007;51.312;12.372;2023-08-31T12:44:02;21.80;62.50
3418;DHT22;68007;51.312;12.372;2023-08-31T12:46:31;21.70;61.20
3418;DHT22;68007;51.312;12.372;2023-08-31T12:48:59;21.70;61.80
3418;DHT22;68007;51.312;12.372;2023-08-31T12:51:28;21.70;62.40
3418;DHT22;68007;51.312;12.372;2023-08-31T12:53:55;21.70;64.70
3418;DHT22;68007;51.312;12.372;2023-08-31T12:56:23;21.70;63.30
3418;DHT22;68007;51.312;12.372;2023-08-31T12:58:52;21.80;64.40
3418;DHT22;68007;51.312;12.372;2023-08-31T13:01:21;21.90;62.80
3418;DHT22;68007;51.312;12.372;2023-08-31T13:03:49;22.00;62.30
3418;DHT22;68007;51.312;12.372;2023-08-31T13:06:16;22.00;61.50
3418;DHT22;68007;51.312;12.372;2023-08-31T13:08:44;22.00;61.60
3418;DHT22;68007;51.312;12.372;2023-08-31T13:11:12;21.90;59.30
3418;DHT22;68007;51.312;12.372;2023-08-31T13:13:40;21.80;59.10
3418;DHT22;68007;51.312;12.372;2023-08-31T13:16:07;21.60;59.20
3418;DHT22;68007;51.312;12.372;2023-08-31T13:18:36;21.50;60.80
3418;DHT22;68007;51.312;12.372;2023-08-31T13:21:04;21.50;59.90
3418;DHT22;68007;51.312;12.372;2023-08-31T13:23:31;21.50;60.50
3418;DHT22;68007;51.312;12.372;2023-08-31T13:25:59;21.60;59.70
3418;DHT22;68007;51.312;12.372;2023-08-31T13:28:26;21.40;58.70
3418;DHT22;68007;51.312;12.372;2023-08-31T13:30:55;21.30;57.90
3418;DHT22;68007;51.312;12.372;2023-08-31T13:33:24;21.30;58.60
3418;DHT22;68007;51.312;12.372;2023-08-31T13:35:53;21.30;58.40
3418;DHT22;68007;51.312;12.372;2023-08-31T13:38:20;21.50;58.50
3418;DHT22;68007;51.312;12.372;2023-08-31T13:40:48;21.50;57.00
3418;DHT22;68007;51.312;12.372;2023-08-31T13:43:15;21.50;57.20
3418;DHT22;68007;51.312;12.372;2023-08-31T13:45:43;21.50;57.00
3418;DHT22;68007;51.312;12.372;2023-08-31T13:48:10;21.50;56.30
3418;DHT22;68007;51.312;12.372;2023-08-31T13:50:38;21.50;56.90
3418;DHT22;68007;51.312;12.372;2023-08-31T13:53:08;21.50;57.10
3418;DHT22;68007;51.312;12.372;2023-08-31T13:55:36;21.50;57.00
3418;DHT22;68007;51.312;12.372;2023-08-31T13:58:07;21.50;56.60
3418;DHT22;68007;51.312;12.372;2023-08-31T14:00:35;21.50;55.90
3418;DHT22;68007;51.312;12.372;2023-08-31T14:03:04;21.40;56.50
3418;DHT22;68007;51.312;12.372;2023-08-31T14:05:32;21.50;57.40
3418;DHT22;68007;51.312;12.372;2023-08-31T14:08:00;21.60;56.50
3418;DHT22;68007;51.312;12.372;2023-08-31T14:10:31;21.70;56.80
3418;DHT22;68007;51.312;12.372;2023-08-31T14:12:59;21.70;56.30
3418;DHT22;68007;51.312;12.372;2023-08-31T14:15:27;21.70;56.00
3418;DHT22;68007;51.312;12.372;2023-08-31T14:17:54;21.60;56.20
3418;DHT22;68007;51.312;12.372;2023-08-31T14:20:22;21.70;56.00
3418;DHT22;68007;51.312;12.372;2023-08-31T14:22:50;21.70;56.00
3418;DHT22;68007;51.312;12.372;2023-08-31T14:25:17;21.80;56.50
3418;DHT22;68007;51.312;12.372;2023-08-31T14:27:48;21.80;55.40
3418;DHT22;68007;51.312;12.372;2023-08-31T14:30:15;21.80;55.50
3418;DHT22;68007;51.312;12.372;2023-08-31T14:32:43;21.70;55.10
3418;DHT22;68007;51.312;12.372;2023-08-31T14:35:10;21.70;54.90
3418;DHT22;68007;51.312;12.372;2023-08-31T14:37:38;21.60;55.30
3418;DHT22;68007;51.312;12.372;2023-08-31T14:40:06;21.70;55.50
3418;DHT22;68007;51.312;12.372;2023-08-31T14:42:34;21.60;54.80
3418;DHT22;68007;51.312;12.372;2023-08-31T14:45:04;21.60;54.10
3418;DHT22;68007;51.312;12.372;2023-08-31T14:47:32;21.50;54.60
3418;DHT22;68007;51.312;12.372;2023-08-31T14:49:59;21.50;54.90
3418;DHT22;68007;51.312;12.372;2023-08-31T14:52:27;21.40;55.30
3418;DHT22;68007;51.312;12.372;2023-08-31T14:54:55;21.40;57.70
3418;DHT22;68007;51.312;12.372;2023-08-31T14:57:22;21.50;61.00
3418;DHT22;68007;51.312;12.372;2023-08-31T14:59:50;21.40;62.90
3418;DHT22;68007;51.312;12.372;2023-08-31T15:02:21;21.40;63.70
3418;DHT22;68007;51.312;12.372;2023-08-31T15:04:48;21.50;64.90
3418;DHT22;68007;51.312;12.372;2023-08-31T15:07:16;21.40;65.00
3418;DHT22;68007;51.312;12.372;2023-08-31T15:09:43;21.40;64.70
3418;DHT22;68007;51.312;12.372;2023-08-31T15:12:12;21.40;64.90
3418;DHT22;68007;51.312;12.372;2023-08-31T15:14:39;21.40;65.30
3418;DHT22;68007;51.312;12.372;2023-08-31T15:17:07;21.40;65.60
3418;DHT22;68007;51.312;12.372;2023-08-31T15:19:36;21.50;65.80
3418;DHT22;68007;51.312;12.372;2023-08-31T15:22:03;21.50;66.00
3418;DHT22;68007;51.312;12.372;2023-08-31T15:24:31;21.60;66.20
3418;DHT22;68007;51.312;12.372;2023-08-31T15:26:59;21.60;66.10
3418;DHT22;68007;51.312;12.372;2023-08-31T15:29:26;21.60;66.70
3418;DHT22;68007;51.312;12.372;2023-08-31T15:31:55;21.70;66.00
3418;DHT22;68007;51.312;12.372;2023-08-31T15:34:22;21.70;66.90
3418;DHT22;68007;51.312;12.372;2023-08-31T15:36:51;21.70;67.20
3418;DHT22;68007;51.312;12.372;2023-08-31T15:39:18;21.80;66.40